MSC Bettina — HPFG — position and weather

sailwx.info

Track history (hours):
 
Tides and Currents Weather Stations Pressure Air Temp Water Temp Dewpoint Dewpoint Depression Visibility Wind Speed Wind Dir Waves Ship Positions

MSC Bettina

Last reported at 2018-Feb-04 00:17 UTC. Time now 2018-Feb-20 17:49 UTC.
Position N 01°19' E 103°18'.
Warning: this ship's position is 16 days out of date.

Length 366 m; draft 14.8 m.

Type: Ship (hazmat cat A). MMSI: 352361000.

Date/timePositionNaut miles runAvg speedWind from/ knotsBaromVisibWave heightAir tempDewpointWater temp
2018-Feb-04 00:17N 01°19' E 103°18'620.0
2018-Feb-03 23:59N 01°16' E 103°23'919.4
2018-Feb-03 23:30N 01°12' E 103°31'1017.7
2018-Feb-03 22:58N 01°10' E 103°41'4 8.3
2018-Feb-03 22:30N 01°08' E 103°44'510.5
2018-Feb-03 22:00N 01°11' E 103°48'3 6.9
2018-Feb-03 21:30N 01°14' E 103°47'3 5.2
2018-Feb-03 21:00N 01°16' E 103°45'0 0.3
2018-Feb-03 20:26N 01°17' E 103°45'0 0.0
2018-Feb-03 19:59N 01°17' E 103°45'0 0.0
2018-Feb-03 18:26N 01°17' E 103°45'0 0.0
2018-Feb-03 17:56N 01°17' E 103°45'0 0.0
2018-Feb-03 17:26N 01°17' E 103°45'0 0.0
2018-Feb-03 16:56N 01°17' E 103°45'0 0.0
2018-Feb-03 15:59N 01°17' E 103°45'0 0.0
2018-Feb-03 15:26N 01°17' E 103°45'0 0.0
2018-Feb-03 14:56N 01°17' E 103°45'0 0.0
2018-Feb-03 14:26N 01°17' E 103°45'0 0.0
2018-Feb-03 13:44N 01°17' E 103°45'0 0.0
2018-Feb-03 13:26N 01°17' E 103°45'0 0.0
2018-Feb-03 12:50N 01°17' E 103°45'0 0.0
2018-Feb-03 12:20N 01°17' E 103°45'0 0.0
2018-Feb-03 11:59N 01°17' E 103°45'0 0.0
2018-Feb-03 11:29N 01°17' E 103°45'0 0.0
2018-Feb-03 10:59N 01°17' E 103°45'0 0.0
2018-Feb-03 10:29N 01°17' E 103°45'0 0.0
2018-Feb-03 09:56N 01°17' E 103°45'0 0.0
2018-Feb-03 09:20N 01°17' E 103°45'0 0.0
2018-Feb-03 08:56N 01°17' E 103°45'0 0.0
2018-Feb-03 08:29N 01°17' E 103°45'0 0.0
2018-Feb-03 07:59N 01°17' E 103°45'0 0.0
2018-Feb-03 06:26N 01°17' E 103°45'0 0.0
2018-Feb-03 05:59N 01°17' E 103°45'0 0.0
2018-Feb-03 05:20N 01°17' E 103°45'0 0.0
2018-Feb-03 04:56N 01°17' E 103°45'0 0.0
2018-Feb-03 03:56N 01°17' E 103°45'0 0.0
2018-Feb-03 03:26N 01°17' E 103°45'0 0.0
2018-Feb-03 01:56N 01°17' E 103°45'0 0.0
2018-Feb-03 01:29N 01°17' E 103°45'0 0.0
2018-Feb-03 00:56N 01°17' E 103°45'0 0.0
2018-Feb-03 00:29N 01°17' E 103°45'0 0.0
2018-Feb-02 23:56N 01°17' E 103°45'0 0.0
2018-Feb-02 23:26N 01°17' E 103°45'0 0.0
2018-Feb-02 22:56N 01°17' E 103°45'0 0.0
2018-Feb-02 22:26N 01°17' E 103°45'0 0.0
2018-Feb-02 21:56N 01°17' E 103°45'0 0.0
2018-Feb-02 21:23N 01°17' E 103°45'0 0.0
2018-Feb-02 20:59N 01°17' E 103°45'0 0.0
2018-Feb-02 20:23N 01°17' E 103°45'0 0.0
2018-Feb-02 19:59N 01°17' E 103°45'0 0.3
2018-Feb-02 19:00N 01°16' E 103°45'4 7.0
2018-Feb-02 18:29N 01°13' E 103°48'511.3
2018-Feb-02 18:00N 01°13' E 103°53'710.5
2018-Feb-02 17:22N 01°15' E 103°60'512.1
2018-Feb-02 16:59N 01°16' E 104°04'  
2018-Jan-27 16:35N 30°33' E 122°16'211.5
2018-Jan-27 16:27N 30°33' E 122°14'715.4
2018-Jan-27 16:00N 30°36' E 122°06'4 6.1
2018-Jan-27 15:24N 30°38' E 122°03'0 0.2
2018-Jan-27 14:59N 30°38' E 122°03'0 0.0
2018-Jan-27 10:58N 30°38' E 122°03'0 0.0
2018-Jan-27 10:28N 30°38' E 122°03'0 0.0
2018-Jan-27 09:58N 30°38' E 122°03'0 0.0
2018-Jan-27 09:22N 30°38' E 122°03'0 0.0
2018-Jan-27 06:49N 30°38' E 122°03'0 0.0
2018-Jan-27 06:10N 30°38' E 122°03'0 0.0
2018-Jan-27 05:55N 30°38' E 122°03'0 0.0
2018-Jan-27 05:22N 30°38' E 122°03'0 0.0
2018-Jan-27 01:13N 30°38' E 122°03'0 0.0
2018-Jan-27 00:54N 30°38' E 122°03'0 0.0
2018-Jan-27 00:30N 30°38' E 122°03'0 0.0
2018-Jan-27 00:00N 30°38' E 122°03'0 0.0
2018-Jan-26 23:29N 30°38' E 122°03'0 0.0
2018-Jan-26 22:59N 30°38' E 122°03'0 0.0
2018-Jan-26 22:26N 30°38' E 122°03'0 0.0
2018-Jan-26 21:48N 30°38' E 122°03'0 0.0
2018-Jan-26 21:18N 30°38' E 122°03'0 0.0
2018-Jan-26 20:57N 30°38' E 122°03'0 0.0
2018-Jan-26 20:24N 30°38' E 122°03'0 0.0
2018-Jan-26 20:00N 30°38' E 122°03'0 0.0
2018-Jan-26 19:30N 30°38' E 122°03'0 0.0
2018-Jan-26 19:00N 30°38' E 122°03'0 0.0
2018-Jan-26 18:12N 30°38' E 122°03'0 0.0
2018-Jan-26 17:59N 30°38' E 122°03'0 0.0
2018-Jan-26 17:11N 30°38' E 122°03'0 0.1
2018-Jan-26 16:53N 30°38' E 122°03'0 0.0
2018-Jan-26 16:23N 30°38' E 122°03'0 0.0
2018-Jan-26 15:41N 30°38' E 122°03'0 0.0
2018-Jan-26 15:11N 30°38' E 122°03'0 0.0
2018-Jan-26 14:56N 30°38' E 122°03'0 0.0
2018-Jan-26 14:29N 30°38' E 122°03'0 0.0
2018-Jan-26 13:27N 30°38' E 122°03'0 0.2
2018-Jan-26 12:58N 30°38' E 122°03'1 2.9
2018-Jan-26 12:30N 30°36' E 122°03'0 0.2
2018-Jan-26 11:57N 30°36' E 122°03'  
Track history (hours):
 
Tides and Currents Weather Stations Pressure Air Temp Water Temp Dewpoint Dewpoint Depression Visibility Wind Speed Wind Dir Waves Ship Positions

MSC Bettina

Last reported at 2018-Feb-04 00:17 UTC. Time now 2018-Feb-20 17:49 UTC.
Position N 01°19' E 103°18'.
Warning: this ship's position is 16 days out of date.

Length 366 m; draft 14.8 m.

Type: Ship (hazmat cat A). MMSI: 352361000.

Date/timePositionNaut miles runAvg speedWind from/ knotsBaromVisibWave heightAir tempDewpointWater temp
2018-Feb-04 00:17N 01°19' E 103°18'620.0
2018-Feb-03 23:59N 01°16' E 103°23'919.4
2018-Feb-03 23:30N 01°12' E 103°31'1017.7
2018-Feb-03 22:58N 01°10' E 103°41'4 8.3
2018-Feb-03 22:30N 01°08' E 103°44'510.5
2018-Feb-03 22:00N 01°11' E 103°48'3 6.9
2018-Feb-03 21:30N 01°14' E 103°47'3 5.2
2018-Feb-03 21:00N 01°16' E 103°45'0 0.3
2018-Feb-03 20:26N 01°17' E 103°45'0 0.0
2018-Feb-03 19:59N 01°17' E 103°45'0 0.0
2018-Feb-03 18:26N 01°17' E 103°45'0 0.0
2018-Feb-03 17:56N 01°17' E 103°45'0 0.0
2018-Feb-03 17:26N 01°17' E 103°45'0 0.0
2018-Feb-03 16:56N 01°17' E 103°45'0 0.0
2018-Feb-03 15:59N 01°17' E 103°45'0 0.0
2018-Feb-03 15:26N 01°17' E 103°45'0 0.0
2018-Feb-03 14:56N 01°17' E 103°45'0 0.0
2018-Feb-03 14:26N 01°17' E 103°45'0 0.0
2018-Feb-03 13:44N 01°17' E 103°45'0 0.0
2018-Feb-03 13:26N 01°17' E 103°45'0 0.0
2018-Feb-03 12:50N 01°17' E 103°45'0 0.0
2018-Feb-03 12:20N 01°17' E 103°45'0 0.0
2018-Feb-03 11:59N 01°17' E 103°45'0 0.0
2018-Feb-03 11:29N 01°17' E 103°45'0 0.0
2018-Feb-03 10:59N 01°17' E 103°45'0 0.0
2018-Feb-03 10:29N 01°17' E 103°45'0 0.0
2018-Feb-03 09:56N 01°17' E 103°45'0 0.0
2018-Feb-03 09:20N 01°17' E 103°45'0 0.0
2018-Feb-03 08:56N 01°17' E 103°45'0 0.0
2018-Feb-03 08:29N 01°17' E 103°45'0 0.0
2018-Feb-03 07:59N 01°17' E 103°45'0 0.0
2018-Feb-03 06:26N 01°17' E 103°45'0 0.0
2018-Feb-03 05:59N 01°17' E 103°45'0 0.0
2018-Feb-03 05:20N 01°17' E 103°45'0 0.0
2018-Feb-03 04:56N 01°17' E 103°45'0 0.0
2018-Feb-03 03:56N 01°17' E 103°45'0 0.0
2018-Feb-03 03:26N 01°17' E 103°45'0 0.0
2018-Feb-03 01:56N 01°17' E 103°45'0 0.0
2018-Feb-03 01:29N 01°17' E 103°45'0 0.0
2018-Feb-03 00:56N 01°17' E 103°45'0 0.0
2018-Feb-03 00:29N 01°17' E 103°45'0 0.0
2018-Feb-02 23:56N 01°17' E 103°45'0 0.0
2018-Feb-02 23:26N 01°17' E 103°45'0 0.0
2018-Feb-02 22:56N 01°17' E 103°45'0 0.0
2018-Feb-02 22:26N 01°17' E 103°45'0 0.0
2018-Feb-02 21:56N 01°17' E 103°45'0 0.0
2018-Feb-02 21:23N 01°17' E 103°45'0 0.0
2018-Feb-02 20:59N 01°17' E 103°45'0 0.0
2018-Feb-02 20:23N 01°17' E 103°45'0 0.0
2018-Feb-02 19:59N 01°17' E 103°45'0 0.3
2018-Feb-02 19:00N 01°16' E 103°45'4 7.0
2018-Feb-02 18:29N 01°13' E 103°48'511.3
2018-Feb-02 18:00N 01°13' E 103°53'710.5
2018-Feb-02 17:22N 01°15' E 103°60'512.1
2018-Feb-02 16:59N 01°16' E 104°04'  
2018-Jan-27 16:35N 30°33' E 122°16'211.5
2018-Jan-27 16:27N 30°33' E 122°14'715.4
2018-Jan-27 16:00N 30°36' E 122°06'4 6.1
2018-Jan-27 15:24N 30°38' E 122°03'0 0.2
2018-Jan-27 14:59N 30°38' E 122°03'0 0.0
2018-Jan-27 10:58N 30°38' E 122°03'0 0.0
2018-Jan-27 10:28N 30°38' E 122°03'0 0.0
2018-Jan-27 09:58N 30°38' E 122°03'0 0.0
2018-Jan-27 09:22N 30°38' E 122°03'0 0.0
2018-Jan-27 06:49N 30°38' E 122°03'0 0.0
2018-Jan-27 06:10N 30°38' E 122°03'0 0.0
2018-Jan-27 05:55N 30°38' E 122°03'0 0.0
2018-Jan-27 05:22N 30°38' E 122°03'0 0.0
2018-Jan-27 01:13N 30°38' E 122°03'0 0.0
2018-Jan-27 00:54N 30°38' E 122°03'0 0.0
2018-Jan-27 00:30N 30°38' E 122°03'0 0.0
2018-Jan-27 00:00N 30°38' E 122°03'0 0.0
2018-Jan-26 23:29N 30°38' E 122°03'0 0.0
2018-Jan-26 22:59N 30°38' E 122°03'0 0.0
2018-Jan-26 22:26N 30°38' E 122°03'0 0.0
2018-Jan-26 21:48N 30°38' E 122°03'0 0.0
2018-Jan-26 21:18N 30°38' E 122°03'0 0.0
2018-Jan-26 20:57N 30°38' E 122°03'0 0.0
2018-Jan-26 20:24N 30°38' E 122°03'0 0.0
2018-Jan-26 20:00N 30°38' E 122°03'0 0.0
2018-Jan-26 19:30N 30°38' E 122°03'0 0.0
2018-Jan-26 19:00N 30°38' E 122°03'0 0.0
2018-Jan-26 18:12N 30°38' E 122°03'0 0.0
2018-Jan-26 17:59N 30°38' E 122°03'0 0.0
2018-Jan-26 17:11N 30°38' E 122°03'0 0.1
2018-Jan-26 16:53N 30°38' E 122°03'0 0.0
2018-Jan-26 16:23N 30°38' E 122°03'0 0.0
2018-Jan-26 15:41N 30°38' E 122°03'0 0.0
2018-Jan-26 15:11N 30°38' E 122°03'0 0.0
2018-Jan-26 14:56N 30°38' E 122°03'0 0.0
2018-Jan-26 14:29N 30°38' E 122°03'0 0.0
2018-Jan-26 13:27N 30°38' E 122°03'0 0.2
2018-Jan-26 12:58N 30°38' E 122°03'1 2.9
2018-Jan-26 12:30N 30°36' E 122°03'0 0.2
2018-Jan-26 11:57N 30°36' E 122°03'  

Dump ship's entire track history